sensor_id;sensor_type;location;lat;lon;timestamp;noise_LAeq;noise_LA_min;noise_LA_max;noise_LA01;noise_LA95
58303;Laerm;44109;52.398;7.024;2023-02-26T00:01:38;40.86;31.32;55.82;;
58303;Laerm;44109;52.398;7.024;2023-02-26T00:04:07;40.94;31.24;55.57;;
58303;Laerm;44109;52.398;7.024;2023-02-26T00:06:39;40.70;31.06;55.54;;
58303;Laerm;44109;52.398;7.024;2023-02-26T00:09:19;40.47;31.16;56.62;;
58303;Laerm;44109;52.398;7.024;2023-02-26T00:11:47;40.87;31.29;56.20;;
58303;Laerm;44109;52.398;7.024;2023-02-26T00:14:16;40.65;31.18;55.68;;
58303;Laerm;44109;52.398;7.024;2023-02-26T00:16:50;40.47;31.14;56.65;;
58303;Laerm;44109;52.398;7.024;2023-02-26T00:19:22;40.56;31.21;55.56;;
58303;Laerm;44109;52.398;7.024;2023-02-26T00:21:50;41.03;31.71;55.72;;
58303;Laerm;44109;52.398;7.024;2023-02-26T00:24:19;41.09;31.62;55.81;;
58303;Laerm;44109;52.398;7.024;2023-02-26T00:26:47;41.27;31.38;64.54;;
58303;Laerm;44109;52.398;7.024;2023-02-26T00:29:15;40.22;31.62;56.07;;
58303;Laerm;44109;52.398;7.024;2023-02-26T00:31:44;40.30;31.43;56.50;;
58303;Laerm;44109;52.398;7.024;2023-02-26T00:34:13;40.17;31.56;55.69;;
58303;Laerm;44109;52.398;7.024;2023-02-26T00:36:49;40.07;31.33;56.58;;
58303;Laerm;44109;52.398;7.024;2023-02-26T00:39:36;39.33;31.25;55.58;;
58303;Laerm;44109;52.398;7.024;2023-02-26T00:42:08;39.47;31.17;55.60;;
58303;Laerm;44109;52.398;7.024;2023-02-26T00:44:37;40.09;31.47;56.29;;
58303;Laerm;44109;52.398;7.024;2023-02-26T00:47:16;39.51;31.31;55.60;;
58303;Laerm;44109;52.398;7.024;2023-02-26T00:50:05;43.49;31.40;56.44;;
58303;Laerm;44109;52.398;7.024;2023-02-26T00:52:48;39.00;31.17;56.29;;
58303;Laerm;44109;52.398;7.024;2023-02-26T00:55:20;39.66;30.90;57.38;;
58303;Laerm;44109;52.398;7.024;2023-02-26T00:57:48;41.12;32.05;56.26;;
58303;Laerm;44109;52.398;7.024;2023-02-26T01:02:48;39.56;31.18;55.48;;
58303;Laerm;44109;52.398;7.024;2023-02-26T01:05:18;39.69;31.64;55.50;;
58303;Laerm;44109;52.398;7.024;2023-02-26T01:08:01;39.73;31.15;61.70;;
58303;Laerm;44109;52.398;7.024;2023-02-26T01:10:34;39.39;30.99;55.70;;
58303;Laerm;44109;52.398;7.024;2023-02-26T01:13:02;39.66;31.00;55.48;;
58303;Laerm;44109;52.398;7.024;2023-02-26T01:15:31;39.55;31.62;55.71;;
58303;Laerm;44109;52.398;7.024;2023-02-26T01:18:11;39.50;31.43;55.63;;
58303;Laerm;44109;52.398;7.024;2023-02-26T01:20:46;39.33;30.88;55.92;;
58303;Laerm;44109;52.398;7.024;2023-02-26T01:23:20;39.37;31.26;56.15;;
58303;Laerm;44109;52.398;7.024;2023-02-26T01:25:55;39.30;31.36;55.58;;
58303;Laerm;44109;52.398;7.024;2023-02-26T01:28:25;39.20;30.88;55.46;;
58303;Laerm;44109;52.398;7.024;2023-02-26T01:30:58;38.79;30.76;55.50;;
58303;Laerm;44109;52.398;7.024;2023-02-26T01:33:37;38.69;30.75;55.67;;
58303;Laerm;44109;52.398;7.024;2023-02-26T01:36:14;38.82;31.07;55.62;;
58303;Laerm;44109;52.398;7.024;2023-02-26T01:38:53;39.46;31.20;56.03;;
58303;Laerm;44109;52.398;7.024;2023-02-26T01:41:32;38.88;31.10;55.65;;
58303;Laerm;44109;52.398;7.024;2023-02-26T01:44:14;38.71;30.87;55.49;;
58303;Laerm;44109;52.398;7.024;2023-02-26T01:47:03;38.19;30.71;55.46;;
58303;Laerm;44109;52.398;7.024;2023-02-26T01:49:31;38.92;30.92;55.59;;
58303;Laerm;44109;52.398;7.024;2023-02-26T01:52:01;38.90;30.89;55.54;;
58303;Laerm;44109;52.398;7.024;2023-02-26T01:54:32;38.62;30.81;56.06;;
58303;Laerm;44109;52.398;7.024;2023-02-26T01:57:07;38.57;30.93;55.56;;
58303;Laerm;44109;52.398;7.024;2023-02-26T01:59:40;38.67;31.28;55.42;;
58303;Laerm;44109;52.398;7.024;2023-02-26T02:02:11;38.84;31.41;55.34;;
58303;Laerm;44109;52.398;7.024;2023-02-26T02:04:40;38.72;31.63;55.63;;
58303;Laerm;44109;52.398;7.024;2023-02-26T02:07:09;38.43;30.57;55.55;;
58303;Laerm;44109;52.398;7.024;2023-02-26T02:09:38;38.08;31.00;55.30;;
58303;Laerm;44109;52.398;7.024;2023-02-26T02:12:25;37.94;30.93;56.09;;
58303;Laerm;44109;52.398;7.024;2023-02-26T02:15:08;38.03;31.00;55.60;;
58303;Laerm;44109;52.398;7.024;2023-02-26T02:17:49;37.82;30.95;55.73;;
58303;Laerm;44109;52.398;7.024;2023-02-26T02:20:44;37.80;30.62;55.87;;
58303;Laerm;44109;52.398;7.024;2023-02-26T02:23:18;38.74;30.87;56.07;;
58303;Laerm;44109;52.398;7.024;2023-02-26T02:26:36;37.37;30.66;55.68;;
58303;Laerm;44109;52.398;7.024;2023-02-26T02:32:38;38.47;31.04;56.15;;
58303;Laerm;44109;52.398;7.024;2023-02-26T02:35:16;38.52;30.79;55.87;;
58303;Laerm;44109;52.398;7.024;2023-02-26T02:37:51;38.08;30.86;55.57;;
58303;Laerm;44109;52.398;7.024;2023-02-26T02:40:25;38.20;30.50;56.26;;
58303;Laerm;44109;52.398;7.024;2023-02-26T02:42:59;32.88;30.69;43.59;;
58303;Laerm;44109;52.398;7.024;2023-02-26T02:45:39;37.71;30.60;55.63;;
58303;Laerm;44109;52.398;7.024;2023-02-26T02:48:16;37.89;30.84;55.52;;
58303;Laerm;44109;52.398;7.024;2023-02-26T02:50:49;38.33;31.10;55.45;;
58303;Laerm;44109;52.398;7.024;2023-02-26T02:53:23;38.46;31.29;55.60;;
58303;Laerm;44109;52.398;7.024;2023-02-26T02:55:58;38.04;31.05;55.53;;
58303;Laerm;44109;52.398;7.024;2023-02-26T02:58:33;38.32;30.78;55.70;;
58303;Laerm;44109;52.398;7.024;2023-02-26T03:01:08;38.49;30.92;55.51;;
58303;Laerm;44109;52.398;7.024;2023-02-26T03:03:45;38.23;31.36;55.36;;
58303;Laerm;44109;52.398;7.024;2023-02-26T03:06:16;38.10;30.91;55.81;;
58303;Laerm;44109;52.398;7.024;2023-02-26T03:08:47;38.20;30.83;56.09;;
58303;Laerm;44109;52.398;7.024;2023-02-26T03:11:14;38.45;31.00;55.49;;
58303;Laerm;44109;52.398;7.024;2023-02-26T03:13:43;38.56;31.42;55.79;;
58303;Laerm;44109;52.398;7.024;2023-02-26T03:16:43;37.50;31.13;55.41;;
58303;Laerm;44109;52.398;7.024;2023-02-26T03:19:22;37.24;30.99;55.05;;
58303;Laerm;44109;52.398;7.024;2023-02-26T03:22:02;37.38;31.22;55.31;;
58303;Laerm;44109;52.398;7.024;2023-02-26T03:24:36;37.52;30.95;55.37;;
58303;Laerm;44109;52.398;7.024;2023-02-26T03:27:13;37.46;30.55;55.31;;
58303;Laerm;44109;52.398;7.024;2023-02-26T03:29:53;37.12;30.72;55.05;;
58303;Laerm;44109;52.398;7.024;2023-02-26T03:32:26;37.28;30.57;54.90;;
58303;Laerm;44109;52.398;7.024;2023-02-26T03:35:06;40.82;30.77;58.52;;
58303;Laerm;44109;52.398;7.024;2023-02-26T03:37:40;37.74;30.75;54.99;;
58303;Laerm;44109;52.398;7.024;2023-02-26T03:40:14;37.39;30.98;55.19;;
58303;Laerm;44109;52.398;7.024;2023-02-26T03:42:49;38.03;31.50;55.12;;
58303;Laerm;44109;52.398;7.024;2023-02-26T03:45:23;38.23;30.52;55.19;;
58303;Laerm;44109;52.398;7.024;2023-02-26T03:47:53;38.00;30.71;55.38;;
58303;Laerm;44109;52.398;7.024;2023-02-26T03:50:31;39.38;31.36;55.21;;
58303;Laerm;44109;52.398;7.024;2023-02-26T03:53:05;37.94;31.04;55.19;;
58303;Laerm;44109;52.398;7.024;2023-02-26T03:55:39;38.14;31.51;55.71;;
58303;Laerm;44109;52.398;7.024;2023-02-26T03:58:07;33.84;31.09;47.96;;
58303;Laerm;44109;52.398;7.024;2023-02-26T04:00:37;37.76;30.87;55.09;;
58303;Laerm;44109;52.398;7.024;2023-02-26T04:03:13;37.70;30.93;55.14;;
58303;Laerm;44109;52.398;7.024;2023-02-26T04:05:49;37.32;31.15;54.89;;
58303;Laerm;44109;52.398;7.024;2023-02-26T04:08:20;37.48;30.95;55.20;;
58303;Laerm;44109;52.398;7.024;2023-02-26T04:10:54;37.84;31.36;55.12;;
58303;Laerm;44109;52.398;7.024;2023-02-26T04:13:23;37.75;30.84;54.96;;
58303;Laerm;44109;52.398;7.024;2023-02-26T04:15:51;37.63;30.81;55.10;;
58303;Laerm;44109;52.398;7.024;2023-02-26T04:18:19;37.83;31.30;55.03;;
58303;Laerm;44109;52.398;7.024;2023-02-26T04:20:48;37.80;30.77;55.23;;
58303;Laerm;44109;52.398;7.024;2023-02-26T04:23:16;38.77;30.97;57.19;;
58303;Laerm;44109;52.398;7.024;2023-02-26T04:25:44;42.88;31.04;58.67;;
58303;Laerm;44109;52.398;7.024;2023-02-26T04:28:12;37.62;30.86;55.21;;
58303;Laerm;44109;52.398;7.024;2023-02-26T04:30:40;37.76;30.70;55.46;;
58303;Laerm;44109;52.398;7.024;2023-02-26T04:33:08;37.83;31.11;55.21;;
58303;Laerm;44109;52.398;7.024;2023-02-26T04:35:36;37.70;30.96;55.19;;
58303;Laerm;44109;52.398;7.024;2023-02-26T04:38:05;37.75;31.06;55.27;;
58303;Laerm;44109;52.398;7.024;2023-02-26T04:40:32;38.09;30.87;55.84;;
58303;Laerm;44109;52.398;7.024;2023-02-26T04:43:00;38.19;30.89;55.36;;
58303;Laerm;44109;52.398;7.024;2023-02-26T04:45:28;37.95;30.77;55.35;;
58303;Laerm;44109;52.398;7.024;2023-02-26T04:47:55;38.12;30.63;55.46;;
58303;Laerm;44109;52.398;7.024;2023-02-26T04:50:23;38.46;31.14;55.62;;
58303;Laerm;44109;52.398;7.024;2023-02-26T04:52:51;38.26;31.51;55.30;;
58303;Laerm;44109;52.398;7.024;2023-02-26T04:55:20;41.20;30.87;58.82;;
58303;Laerm;44109;52.398;7.024;2023-02-26T04:57:47;41.30;30.88;57.59;;
58303;Laerm;44109;52.398;7.024;2023-02-26T05:00:16;41.34;31.01;57.61;;
58303;Laerm;44109;52.398;7.024;2023-02-26T05:02:45;40.79;30.92;57.77;;
58303;Laerm;44109;52.398;7.024;2023-02-26T05:05:12;42.34;31.44;58.55;;
58303;Laerm;44109;52.398;7.024;2023-02-26T05:07:40;40.62;32.43;55.43;;
58303;Laerm;44109;52.398;7.024;2023-02-26T05:10:10;38.96;31.16;55.26;;
58303;Laerm;44109;52.398;7.024;2023-02-26T05:12:39;43.46;30.97;56.80;;
58303;Laerm;44109;52.398;7.024;2023-02-26T05:15:08;39.54;31.74;56.02;;
58303;Laerm;44109;52.398;7.024;2023-02-26T05:17:35;38.21;31.17;55.59;;
58303;Laerm;44109;52.398;7.024;2023-02-26T05:20:05;38.45;31.54;56.01;;
58303;Laerm;44109;52.398;7.024;2023-02-26T05:22:35;38.01;31.09;55.30;;
58303;Laerm;44109;52.398;7.024;2023-02-26T05:25:05;38.02;30.83;55.22;;
58303;Laerm;44109;52.398;7.024;2023-02-26T05:27:33;39.35;31.91;55.40;;
58303;Laerm;44109;52.398;7.024;2023-02-26T05:30:02;39.30;31.30;55.14;;
58303;Laerm;44109;52.398;7.024;2023-02-26T05:32:30;38.67;31.44;55.35;;
58303;Laerm;44109;52.398;7.024;2023-02-26T05:34:58;40.24;31.78;55.22;;
58303;Laerm;44109;52.398;7.024;2023-02-26T05:37:25;42.35;32.63;55.61;;
58303;Laerm;44109;52.398;7.024;2023-02-26T05:39:53;43.68;32.42;58.08;;
58303;Laerm;44109;52.398;7.024;2023-02-26T05:42:21;45.14;32.48;61.58;;
58303;Laerm;44109;52.398;7.024;2023-02-26T05:44:50;43.84;31.96;64.27;;
58303;Laerm;44109;52.398;7.024;2023-02-26T05:47:19;45.32;32.29;64.41;;
58303;Laerm;44109;52.398;7.024;2023-02-26T05:49:47;46.00;32.74;62.39;;
58303;Laerm;44109;52.398;7.024;2023-02-26T05:52:15;45.96;31.85;67.44;;
58303;Laerm;44109;52.398;7.024;2023-02-26T05:54:42;44.49;31.66;61.94;;
58303;Laerm;44109;52.398;7.024;2023-02-26T05:57:10;41.03;31.48;58.74;;
58303;Laerm;44109;52.398;7.024;2023-02-26T05:59:38;38.88;31.80;55.30;;
58303;Laerm;44109;52.398;7.024;2023-02-26T06:02:06;42.25;31.82;59.34;;
58303;Laerm;44109;52.398;7.024;2023-02-26T06:04:36;42.95;32.71;63.36;;
58303;Laerm;44109;52.398;7.024;2023-02-26T06:07:03;43.01;32.09;62.48;;
58303;Laerm;44109;52.398;7.024;2023-02-26T06:09:31;42.35;31.88;59.47;;
58303;Laerm;44109;52.398;7.024;2023-02-26T06:11:59;42.46;31.99;56.63;;
58303;Laerm;44109;52.398;7.024;2023-02-26T06:14:26;46.76;32.58;60.94;;
58303;Laerm;44109;52.398;7.024;2023-02-26T06:16:54;47.00;32.40;61.34;;
58303;Laerm;44109;52.398;7.024;2023-02-26T06:19:22;45.20;32.77;69.80;;
58303;Laerm;44109;52.398;7.024;2023-02-26T06:21:51;45.41;32.43;62.20;;
58303;Laerm;44109;52.398;7.024;2023-02-26T06:24:19;47.58;32.71;64.41;;
58303;Laerm;44109;52.398;7.024;2023-02-26T06:26:46;47.84;33.13;69.30;;
58303;Laerm;44109;52.398;7.024;2023-02-26T06:29:15;47.70;33.84;62.39;;
58303;Laerm;44109;52.398;7.024;2023-02-26T06:31:45;45.56;32.97;63.64;;
58303;Laerm;44109;52.398;7.024;2023-02-26T06:34:14;43.19;33.00;58.99;;
58303;Laerm;44109;52.398;7.024;2023-02-26T06:36:42;44.27;33.00;60.99;;
58303;Laerm;44109;52.398;7.024;2023-02-26T06:39:12;43.66;34.01;56.83;;
58303;Laerm;44109;52.398;7.024;2023-02-26T06:41:39;45.21;32.82;62.01;;
58303;Laerm;44109;52.398;7.024;2023-02-26T06:44:08;43.55;32.56;57.24;;
58303;Laerm;44109;52.398;7.024;2023-02-26T06:46:36;46.46;32.88;67.96;;
58303;Laerm;44109;52.398;7.024;2023-02-26T06:49:04;53.13;34.76;71.98;;
58303;Laerm;44109;52.398;7.024;2023-02-26T06:51:32;47.36;33.12;64.45;;
58303;Laerm;44109;52.398;7.024;2023-02-26T06:54:00;47.68;33.71;63.21;;
58303;Laerm;44109;52.398;7.024;2023-02-26T06:56:29;46.01;33.69;62.57;;
58303;Laerm;44109;52.398;7.024;2023-02-26T06:58:56;47.30;33.03;62.80;;
58303;Laerm;44109;52.398;7.024;2023-02-26T07:01:24;44.65;32.99;60.76;;
58303;Laerm;44109;52.398;7.024;2023-02-26T07:03:52;48.38;33.71;69.10;;
58303;Laerm;44109;52.398;7.024;2023-02-26T07:06:20;49.41;34.16;69.97;;
58303;Laerm;44109;52.398;7.024;2023-02-26T07:08:47;47.96;34.52;68.53;;
58303;Laerm;44109;52.398;7.024;2023-02-26T07:11:15;45.73;34.31;63.07;;
58303;Laerm;44109;52.398;7.024;2023-02-26T07:13:44;44.07;34.00;60.97;;
58303;Laerm;44109;52.398;7.024;2023-02-26T07:16:12;43.99;34.92;57.06;;
58303;Laerm;44109;52.398;7.024;2023-02-26T07:18:39;45.88;34.32;64.45;;
58303;Laerm;44109;52.398;7.024;2023-02-26T07:21:07;46.29;34.54;60.23;;
58303;Laerm;44109;52.398;7.024;2023-02-26T07:23:35;45.72;34.92;59.61;;
58303;Laerm;44109;52.398;7.024;2023-02-26T07:26:03;49.75;34.30;64.60;;
58303;Laerm;44109;52.398;7.024;2023-02-26T07:28:31;47.61;34.30;64.81;;
58303;Laerm;44109;52.398;7.024;2023-02-26T07:31:00;45.48;33.94;61.83;;
58303;Laerm;44109;52.398;7.024;2023-02-26T07:33:27;46.99;34.00;63.38;;
58303;Laerm;44109;52.398;7.024;2023-02-26T07:35:57;46.51;35.26;62.85;;
58303;Laerm;44109;52.398;7.024;2023-02-26T07:38:25;47.63;35.34;63.20;;
58303;Laerm;44109;52.398;7.024;2023-02-26T07:40:54;46.50;33.94;61.51;;
58303;Laerm;44109;52.398;7.024;2023-02-26T07:43:22;46.83;35.37;61.15;;
58303;Laerm;44109;52.398;7.024;2023-02-26T07:45:50;47.82;34.58;64.78;;
58303;Laerm;44109;52.398;7.024;2023-02-26T07:48:19;50.99;35.34;68.29;;
58303;Laerm;44109;52.398;7.024;2023-02-26T07:50:50;50.09;34.58;72.54;;
58303;Laerm;44109;52.398;7.024;2023-02-26T07:53:19;44.59;34.48;59.92;;
58303;Laerm;44109;52.398;7.024;2023-02-26T07:55:47;47.25;35.72;68.88;;
58303;Laerm;44109;52.398;7.024;2023-02-26T07:58:16;48.90;35.97;71.78;;
58303;Laerm;44109;52.398;7.024;2023-02-26T08:00:44;47.60;35.50;66.39;;
58303;Laerm;44109;52.398;7.024;2023-02-26T08:03:11;45.64;34.59;58.11;;
58303;Laerm;44109;52.398;7.024;2023-02-26T08:05:42;48.35;35.12;70.73;;
58303;Laerm;44109;52.398;7.024;2023-02-26T08:08:09;49.62;35.75;73.59;;
58303;Laerm;44109;52.398;7.024;2023-02-26T08:10:37;46.69;35.37;62.34;;
58303;Laerm;44109;52.398;7.024;2023-02-26T08:13:07;48.46;34.87;68.57;;
58303;Laerm;44109;52.398;7.024;2023-02-26T08:15:34;47.23;35.76;66.27;;
58303;Laerm;44109;52.398;7.024;2023-02-26T08:18:02;47.06;35.46;59.47;;
58303;Laerm;44109;52.398;7.024;2023-02-26T08:20:30;48.29;35.59;61.90;;
58303;Laerm;44109;52.398;7.024;2023-02-26T08:22:59;49.08;35.33;64.44;;
58303;Laerm;44109;52.398;7.024;2023-02-26T08:25:27;47.23;35.85;62.63;;
58303;Laerm;44109;52.398;7.024;2023-02-26T08:27:54;48.66;33.74;64.21;;
58303;Laerm;44109;52.398;7.024;2023-02-26T08:30:24;47.86;34.34;62.27;;
58303;Laerm;44109;52.398;7.024;2023-02-26T08:32:51;48.90;34.73;59.81;;
58303;Laerm;44109;52.398;7.024;2023-02-26T08:35:19;50.61;35.07;69.80;;
58303;Laerm;44109;52.398;7.024;2023-02-26T08:37:47;51.05;36.45;64.04;;
58303;Laerm;44109;52.398;7.024;2023-02-26T08:40:16;52.28;34.49;66.62;;
58303;Laerm;44109;52.398;7.024;2023-02-26T08:42:43;49.76;35.49;66.72;;
58303;Laerm;44109;52.398;7.024;2023-02-26T08:45:11;47.70;34.92;61.81;;
58303;Laerm;44109;52.398;7.024;2023-02-26T08:47:39;47.69;34.83;59.74;;
58303;Laerm;44109;52.398;7.024;2023-02-26T08:50:11;47.88;34.92;60.97;;
58303;Laerm;44109;52.398;7.024;2023-02-26T08:52:38;47.36;36.16;62.61;;
58303;Laerm;44109;52.398;7.024;2023-02-26T08:55:07;48.27;36.95;58.99;;
58303;Laerm;44109;52.398;7.024;2023-02-26T08:57:36;48.06;36.08;60.28;;
58303;Laerm;44109;52.398;7.024;2023-02-26T09:00:06;49.13;36.62;69.01;;
58303;Laerm;44109;52.398;7.024;2023-02-26T09:02:36;47.96;36.79;60.92;;
58303;Laerm;44109;52.398;7.024;2023-02-26T09:05:05;47.50;35.05;57.83;;
58303;Laerm;44109;52.398;7.024;2023-02-26T09:07:33;50.17;36.36;65.29;;
58303;Laerm;44109;52.398;7.024;2023-02-26T09:10:00;51.27;36.27;66.67;;
58303;Laerm;44109;52.398;7.024;2023-02-26T09:12:28;49.16;35.36;68.54;;
58303;Laerm;44109;52.398;7.024;2023-02-26T09:14:57;48.02;34.76;63.16;;
58303;Laerm;44109;52.398;7.024;2023-02-26T09:17:25;48.57;35.49;65.06;;
58303;Laerm;44109;52.398;7.024;2023-02-26T09:19:53;51.60;35.75;71.95;;
58303;Laerm;44109;52.398;7.024;2023-02-26T09:22:20;51.92;35.05;71.39;;
58303;Laerm;44109;52.398;7.024;2023-02-26T09:24:48;49.03;36.59;65.96;;
58303;Laerm;44109;52.398;7.024;2023-02-26T09:27:16;50.52;36.65;66.81;;
58303;Laerm;44109;52.398;7.024;2023-02-26T09:29:44;50.97;36.54;76.21;;
58303;Laerm;44109;52.398;7.024;2023-02-26T09:32:13;48.85;37.80;69.69;;
58303;Laerm;44109;52.398;7.024;2023-02-26T09:34:41;47.60;36.77;61.57;;
58303;Laerm;44109;52.398;7.024;2023-02-26T09:37:09;51.34;38.37;70.70;;
58303;Laerm;44109;52.398;7.024;2023-02-26T09:39:36;49.08;39.01;71.02;;
58303;Laerm;44109;52.398;7.024;2023-02-26T09:42:16;47.85;37.19;62.40;;
58303;Laerm;44109;52.398;7.024;2023-02-26T09:44:49;46.94;37.77;62.94;;
58303;Laerm;44109;52.398;7.024;2023-02-26T09:47:25;47.09;38.09;58.75;;
58303;Laerm;44109;52.398;7.024;2023-02-26T09:50:00;49.87;40.49;71.43;;
58303;Laerm;44109;52.398;7.024;2023-02-26T09:52:38;51.03;39.02;73.72;;
58303;Laerm;44109;52.398;7.024;2023-02-26T09:55:15;49.39;39.29;74.89;;
58303;Laerm;44109;52.398;7.024;2023-02-26T09:57:48;49.17;38.87;63.95;;
58303;Laerm;44109;52.398;7.024;2023-02-26T10:00:28;50.38;39.30;68.13;;
58303;Laerm;44109;52.398;7.024;2023-02-26T10:03:15;48.32;36.67;65.78;;
58303;Laerm;44109;52.398;7.024;2023-02-26T10:06:07;48.81;38.84;59.81;;
58303;Laerm;44109;52.398;7.024;2023-02-26T10:08:48;48.30;38.97;71.60;;
58303;Laerm;44109;52.398;7.024;2023-02-26T10:11:26;50.01;38.44;75.37;;
58303;Laerm;44109;52.398;7.024;2023-02-26T10:14:05;53.03;41.77;75.85;;
58303;Laerm;44109;52.398;7.024;2023-02-26T10:16:40;48.99;41.35;60.99;;
58303;Laerm;44109;52.398;7.024;2023-02-26T10:19:17;49.12;39.54;69.38;;
58303;Laerm;44109;52.398;7.024;2023-02-26T10:21:50;50.31;39.94;69.08;;
58303;Laerm;44109;52.398;7.024;2023-02-26T10:24:25;48.68;38.56;65.23;;
58303;Laerm;44109;52.398;7.024;2023-02-26T10:26:57;51.69;38.54;74.33;;
58303;Laerm;44109;52.398;7.024;2023-02-26T10:29:36;49.94;40.73;69.16;;
58303;Laerm;44109;52.398;7.024;2023-02-26T10:32:22;49.13;39.66;70.26;;
58303;Laerm;44109;52.398;7.024;2023-02-26T10:34:56;53.39;38.74;81.69;;
58303;Laerm;44109;52.398;7.024;2023-02-26T10:37:40;48.79;37.82;69.13;;
58303;Laerm;44109;52.398;7.024;2023-02-26T10:40:17;50.29;38.21;75.16;;
58303;Laerm;44109;52.398;7.024;2023-02-26T10:42:49;57.61;41.27;79.31;;
58303;Laerm;44109;52.398;7.024;2023-02-26T10:45:38;49.15;39.74;68.45;;
58303;Laerm;44109;52.398;7.024;2023-02-26T10:48:31;51.79;41.96;75.46;;
58303;Laerm;44109;52.398;7.024;2023-02-26T10:51:13;57.73;41.03;78.31;;
58303;Laerm;44109;52.398;7.024;2023-02-26T10:53:46;50.22;39.26;74.31;;
58303;Laerm;44109;52.398;7.024;2023-02-26T10:56:21;52.04;38.82;81.79;;
58303;Laerm;44109;52.398;7.024;2023-02-26T10:58:51;49.27;38.43;70.49;;
58303;Laerm;44109;52.398;7.024;2023-02-26T11:01:23;49.74;39.42;75.01;;
58303;Laerm;44109;52.398;7.024;2023-02-26T11:03:58;48.31;39.33;64.72;;
58303;Laerm;44109;52.398;7.024;2023-02-26T11:06:33;51.83;40.25;73.90;;
58303;Laerm;44109;52.398;7.024;2023-02-26T11:11:52;50.25;39.38;72.15;;
58303;Laerm;44109;52.398;7.024;2023-02-26T11:14:21;51.82;40.17;74.96;;
58303;Laerm;44109;52.398;7.024;2023-02-26T11:16:52;50.45;40.39;70.82;;
58303;Laerm;44109;52.398;7.024;2023-02-26T11:19:27;49.35;39.70;69.45;;
58303;Laerm;44109;52.398;7.024;2023-02-26T11:21:58;51.95;40.97;69.66;;
58303;Laerm;44109;52.398;7.024;2023-02-26T11:24:31;53.80;42.03;76.05;;
58303;Laerm;44109;52.398;7.024;2023-02-26T11:27:03;52.16;40.14;72.29;;
58303;Laerm;44109;52.398;7.024;2023-02-26T11:29:37;46.52;36.05;67.37;;
58303;Laerm;44109;52.398;7.024;2023-02-26T11:32:06;48.00;38.36;63.17;;
58303;Laerm;44109;52.398;7.024;2023-02-26T11:34:33;51.53;41.58;74.57;;
58303;Laerm;44109;52.398;7.024;2023-02-26T11:37:05;47.88;37.29;69.01;;
58303;Laerm;44109;52.398;7.024;2023-02-26T11:39:35;46.76;37.85;64.72;;
58303;Laerm;44109;52.398;7.024;2023-02-26T11:42:05;53.59;40.70;75.27;;
58303;Laerm;44109;52.398;7.024;2023-02-26T11:44:36;48.01;39.76;65.81;;
58303;Laerm;44109;52.398;7.024;2023-02-26T11:47:11;48.32;39.08;63.24;;
58303;Laerm;44109;52.398;7.024;2023-02-26T11:49:43;47.09;37.61;60.56;;
58303;Laerm;44109;52.398;7.024;2023-02-26T11:52:27;50.08;39.45;62.54;;
58303;Laerm;44109;52.398;7.024;2023-02-26T11:55:00;49.17;39.12;65.96;;
58303;Laerm;44109;52.398;7.024;2023-02-26T11:57:31;50.23;40.46;67.72;;
58303;Laerm;44109;52.398;7.024;2023-02-26T12:00:16;48.74;38.59;64.62;;
58303;Laerm;44109;52.398;7.024;2023-02-26T12:02:45;50.82;40.62;64.12;;
58303;Laerm;44109;52.398;7.024;2023-02-26T12:05:16;50.81;38.52;65.39;;
58303;Laerm;44109;52.398;7.024;2023-02-26T12:07:45;51.77;40.62;65.39;;
58303;Laerm;44109;52.398;7.024;2023-02-26T12:10:19;51.06;38.63;70.31;;
58303;Laerm;44109;52.398;7.024;2023-02-26T12:13:07;54.37;39.37;79.36;;
58303;Laerm;44109;52.398;7.024;2023-02-26T12:15:50;50.01;38.97;68.31;;
58303;Laerm;44109;52.398;7.024;2023-02-26T12:18:37;49.42;39.89;71.30;;
58303;Laerm;44109;52.398;7.024;2023-02-26T12:21:23;50.02;40.00;74.23;;
58303;Laerm;44109;52.398;7.024;2023-02-26T12:24:24;50.74;40.61;69.48;;
58303;Laerm;44109;52.398;7.024;2023-02-26T12:27:00;48.81;38.91;66.64;;
58303;Laerm;44109;52.398;7.024;2023-02-26T12:29:47;53.80;38.06;77.47;;
58303;Laerm;44109;52.398;7.024;2023-02-26T12:32:36;50.00;39.58;70.93;;
58303;Laerm;44109;52.398;7.024;2023-02-26T12:35:32;49.28;39.25;72.20;;
58303;Laerm;44109;52.398;7.024;2023-02-26T12:38:23;49.38;40.22;68.80;;
58303;Laerm;44109;52.398;7.024;2023-02-26T12:41:24;50.47;40.65;67.26;;
58303;Laerm;44109;52.398;7.024;2023-02-26T12:43:59;52.70;40.02;75.65;;
58303;Laerm;44109;52.398;7.024;2023-02-26T12:46:53;51.97;41.63;67.39;;
58303;Laerm;44109;52.398;7.024;2023-02-26T12:49:49;54.33;41.94;69.43;;
58303;Laerm;44109;52.398;7.024;2023-02-26T12:52:55;53.21;40.82;75.88;;
58303;Laerm;44109;52.398;7.024;2023-02-26T12:55:39;52.50;39.27;70.13;;
58303;Laerm;44109;52.398;7.024;2023-02-26T12:58:32;50.23;39.25;75.22;;
58303;Laerm;44109;52.398;7.024;2023-02-26T13:01:28;51.67;39.60;70.17;;
58303;Laerm;44109;52.398;7.024;2023-02-26T13:04:25;48.79;40.24;70.67;;
58303;Laerm;44109;52.398;7.024;2023-02-26T13:07:19;53.02;39.97;84.51;;
58303;Laerm;44109;52.398;7.024;2023-02-26T13:10:00;48.16;40.23;68.31;;
58303;Laerm;44109;52.398;7.024;2023-02-26T13:12:43;51.67;40.04;72.59;;
58303;Laerm;44109;52.398;7.024;2023-02-26T13:15:47;51.51;39.87;73.59;;
58303;Laerm;44109;52.398;7.024;2023-02-26T13:18:33;49.15;38.42;79.71;;
58303;Laerm;44109;52.398;7.024;2023-02-26T13:21:09;47.36;37.30;64.57;;
58303;Laerm;44109;52.398;7.024;2023-02-26T13:23:48;51.48;39.48;71.07;;
58303;Laerm;44109;52.398;7.024;2023-02-26T13:26:18;50.74;38.74;77.92;;
58303;Laerm;44109;52.398;7.024;2023-02-26T13:28:53;48.20;40.15;66.61;;
58303;Laerm;44109;52.398;7.024;2023-02-26T13:31:30;47.38;39.55;63.96;;
58303;Laerm;44109;52.398;7.024;2023-02-26T13:34:03;48.60;38.53;67.30;;
58303;Laerm;44109;52.398;7.024;2023-02-26T13:36:33;47.39;36.89;62.40;;
58303;Laerm;44109;52.398;7.024;2023-02-26T13:39:30;48.99;36.93;71.54;;
58303;Laerm;44109;52.398;7.024;2023-02-26T13:42:17;49.16;37.65;69.57;;
58303;Laerm;44109;52.398;7.024;2023-02-26T13:44:57;48.86;39.31;66.99;;
58303;Laerm;44109;52.398;7.024;2023-02-26T13:47:53;50.50;40.30;74.37;;
58303;Laerm;44109;52.398;7.024;2023-02-26T13:50:32;50.09;40.29;59.38;;
58303;Laerm;44109;52.398;7.024;2023-02-26T13:56:14;51.94;39.25;67.39;;
58303;Laerm;44109;52.398;7.024;2023-02-26T13:58:48;52.32;39.27;71.19;;
58303;Laerm;44109;52.398;7.024;2023-02-26T14:01:26;49.35;39.38;64.76;;
58303;Laerm;44109;52.398;7.024;2023-02-26T14:04:23;47.38;39.00;68.82;;
58303;Laerm;44109;52.398;7.024;2023-02-26T14:06:53;46.20;37.77;65.82;;
58303;Laerm;44109;52.398;7.024;2023-02-26T14:09:46;45.90;37.27;62.21;;
58303;Laerm;44109;52.398;7.024;2023-02-26T14:12:33;47.89;36.37;64.94;;
58303;Laerm;44109;52.398;7.024;2023-02-26T14:15:40;51.79;40.48;69.92;;
58303;Laerm;44109;52.398;7.024;2023-02-26T14:18:35;47.36;37.62;67.08;;
58303;Laerm;44109;52.398;7.024;2023-02-26T14:21:36;47.86;35.88;76.15;;
58303;Laerm;44109;52.398;7.024;2023-02-26T14:24:15;50.38;37.56;66.27;;
58303;Laerm;44109;52.398;7.024;2023-02-26T14:26:47;52.41;40.98;72.05;;
58303;Laerm;44109;52.398;7.024;2023-02-26T14:29:29;52.15;40.88;68.18;;
58303;Laerm;44109;52.398;7.024;2023-02-26T14:32:14;47.86;38.36;63.18;;
58303;Laerm;44109;52.398;7.024;2023-02-26T14:34:50;48.31;38.43;63.66;;